Arthur, Nebraska
Current Conditions -  °F | °C
As of 8:55 AM on Sunday 23 Nov 2014 (Local Time) from KOGA Reporting Station
Clear Clear  
Wind Chill: 33°   Ceiling: Unl
Heat Index: 41°   Visibility: 10mi
Dew Point: 20°   Wind: 18mph
Humidity: 43%   Direction: 340°NNW
Pressure: 29.72"   Gusts: 26mph
Location:  41.57°N, 101.69°W
Report Text: KOGA 231555Z AUTO 34016G23KT 10SM CLR 05/M07 A2972 RMK AO2 T00521066
Loading
Personal Weather Stations






























Interactive Weather Map New forecast layout! Learn more

10-Day Weather Forecast

Advertisements
Track Severe Weather on mobile